createdAt,value
2022-10-05T00:01:58.168Z,63.80
2022-10-05T00:04:28.975Z,63.70
2022-10-05T00:06:57.263Z,63.70
2022-10-05T00:09:24.175Z,63.70
2022-10-05T00:11:51.688Z,63.70
2022-10-05T00:14:28.951Z,63.70
2022-10-05T00:16:56.981Z,63.70
2022-10-05T00:19:35.709Z,63.80
2022-10-05T00:22:22.657Z,63.90
2022-10-05T00:24:56.478Z,63.90
2022-10-05T00:27:37.981Z,63.80
2022-10-05T00:30:20.072Z,63.90
2022-10-05T00:32:47.291Z,63.80
2022-10-05T00:35:16.241Z,63.90
2022-10-05T00:37:44.629Z,63.80
2022-10-05T00:40:11.551Z,64.00
2022-10-05T00:43:07.381Z,63.90
2022-10-05T00:45:40.014Z,64.00
2022-10-05T00:48:12.653Z,64.00
2022-10-05T00:50:49.402Z,63.90
2022-10-05T00:53:53.876Z,65.00
2022-10-05T00:56:41.998Z,64.20
2022-10-05T00:59:25.210Z,64.20
2022-10-05T01:02:01.056Z,64.30
2022-10-05T01:04:55.755Z,64.30
2022-10-05T01:07:50.384Z,64.30
2022-10-05T01:10:44.992Z,64.40
2022-10-05T01:13:32.090Z,64.40
2022-10-05T01:16:15.552Z,64.40
2022-10-05T01:18:50.412Z,64.60
2022-10-05T01:21:20.038Z,64.60
2022-10-05T01:24:08.176Z,64.70
2022-10-05T01:26:47.286Z,64.60
2022-10-05T01:29:30.551Z,64.70
2022-10-05T01:32:14.268Z,64.70
2022-10-05T01:35:02.816Z,64.70
2022-10-05T01:37:40.309Z,64.60
2022-10-05T01:40:27.800Z,64.60
2022-10-05T01:43:25.020Z,64.60
2022-10-05T01:46:06.880Z,64.50
2022-10-05T01:49:07.603Z,64.50
2022-10-05T01:52:02.397Z,64.60
2022-10-05T01:54:38.091Z,64.70
2022-10-05T01:57:04.917Z,64.70
2022-10-05T01:59:46.927Z,64.80
2022-10-05T02:02:18.935Z,64.90
2022-10-05T02:05:02.290Z,65.10
2022-10-05T02:08:26.769Z,65.00
2022-10-05T02:11:07.398Z,65.10
2022-10-05T02:13:38.821Z,65.20
2022-10-05T02:16:49.946Z,65.20
2022-10-05T02:19:25.640Z,65.30
2022-10-05T02:21:59.274Z,65.40
2022-10-05T02:24:32.428Z,65.40
2022-10-05T02:26:59.859Z,65.50
2022-10-05T02:29:33.196Z,65.60
2022-10-05T02:32:11.466Z,65.70
2022-10-05T02:34:40.622Z,65.70
2022-10-05T02:37:57.325Z,65.70
2022-10-05T02:40:34.760Z,65.70
2022-10-05T02:43:40.092Z,65.80
2022-10-05T02:46:27.421Z,65.80
2022-10-05T02:49:14.111Z,65.80
2022-10-05T02:51:56.452Z,65.70
2022-10-05T02:54:23.661Z,65.70
2022-10-05T02:56:58.222Z,65.70
2022-10-05T02:59:51.872Z,65.60
2022-10-05T03:02:33.938Z,65.70
2022-10-05T03:05:19.109Z,65.70
2022-10-05T03:07:54.659Z,65.60
2022-10-05T03:10:50.818Z,65.60
2022-10-05T03:13:34.246Z,65.70
2022-10-05T03:16:17.083Z,65.60
2022-10-05T03:19:05.114Z,65.50
2022-10-05T03:21:41.474Z,65.60
2022-10-05T03:24:44.411Z,65.60
2022-10-05T03:27:37.482Z,65.50
2022-10-05T03:30:23.786Z,65.60
2022-10-05T03:33:14.172Z,65.60
2022-10-05T03:35:41.363Z,65.50
2022-10-05T03:38:34.391Z,65.50
2022-10-05T03:41:25.539Z,65.30
2022-10-05T03:44:23.210Z,65.20
2022-10-05T03:46:56.415Z,65.10
2022-10-05T03:49:44.570Z,65.00
2022-10-05T03:52:18.812Z,65.10
2022-10-05T03:55:09.490Z,65.10
2022-10-05T03:57:40.253Z,64.90
2022-10-05T04:00:19.929Z,64.80
2022-10-05T04:03:12.486Z,64.60
2022-10-05T04:05:55.521Z,64.40
2022-10-05T04:08:48.090Z,64.40
2022-10-05T04:11:26.413Z,64.40
2022-10-05T04:14:14.748Z,65.30
2022-10-05T04:16:57.817Z,64.20
2022-10-05T04:19:47.661Z,64.10
2022-10-05T04:22:44.178Z,64.00
2022-10-05T04:25:18.354Z,63.70
2022-10-05T04:28:03.235Z,63.40
2022-10-05T04:30:32.251Z,63.50
2022-10-05T04:33:00.748Z,63.30
2022-10-05T04:35:52.716Z,63.10
2022-10-05T04:38:31.590Z,63.10
2022-10-05T04:41:22.852Z,63.00
2022-10-05T04:44:41.159Z,62.70
2022-10-05T04:47:21.928Z,62.80
2022-10-05T04:50:08.125Z,62.60
2022-10-05T04:52:35.203Z,62.50
2022-10-05T04:55:22.545Z,62.50
2022-10-05T04:58:11.174Z,62.40
2022-10-05T05:00:44.706Z,61.90
2022-10-05T05:03:41.069Z,61.80
2022-10-05T05:06:32.367Z,61.80
2022-10-05T05:09:37.563Z,62.00
2022-10-05T05:12:11.054Z,62.00
2022-10-05T05:14:42.208Z,62.10
2022-10-05T05:17:37.063Z,62.00
2022-10-05T05:20:18.331Z,62.00
2022-10-05T05:23:10.210Z,61.90
2022-10-05T05:25:40.857Z,62.00
2022-10-05T05:28:24.649Z,62.10
2022-10-05T05:31:13.140Z,62.10
2022-10-05T05:33:54.662Z,62.00
2022-10-05T05:36:55.384Z,62.00
2022-10-05T05:39:49.304Z,61.80
2022-10-05T05:42:45.979Z,61.80
2022-10-05T05:45:50.080Z,61.80
2022-10-05T05:48:26.713Z,62.00
2022-10-05T05:51:13.301Z,61.90
2022-10-05T05:54:01.504Z,61.70
2022-10-05T05:56:37.574Z,61.80
2022-10-05T05:59:17.597Z,61.80
2022-10-05T06:01:52.472Z,62.00
2022-10-05T06:04:27.271Z,62.10
2022-10-05T06:06:57.397Z,62.50
2022-10-05T06:09:31.208Z,62.50
2022-10-05T06:12:34.683Z,62.50
2022-10-05T06:15:30.739Z,62.50
2022-10-05T06:18:01.368Z,62.70
2022-10-05T06:20:45.304Z,62.80
2022-10-05T06:23:18.645Z,62.70
2022-10-05T06:25:54.776Z,62.70
2022-10-05T06:28:27.173Z,62.80
2022-10-05T06:31:24.890Z,62.90
2022-10-05T06:34:05.820Z,62.80
2022-10-05T06:36:45.739Z,62.90
2022-10-05T06:39:22.830Z,63.00
2022-10-05T06:41:55.972Z,63.00
2022-10-05T06:45:02.001Z,63.10
2022-10-05T06:48:24.038Z,63.10
2022-10-05T06:51:36.275Z,63.40
2022-10-05T06:54:38.217Z,63.40
2022-10-05T06:57:19.263Z,63.60
2022-10-05T07:00:05.286Z,63.70
2022-10-05T07:03:15.217Z,63.60
2022-10-05T07:05:45.156Z,63.70
2022-10-05T07:08:16.540Z,63.60
2022-10-05T07:10:49.290Z,63.50
2022-10-05T07:13:48.780Z,63.50
2022-10-05T07:16:45.423Z,63.60
2022-10-05T07:19:27.811Z,63.50
2022-10-05T07:22:04.582Z,63.50
2022-10-05T07:24:33.501Z,63.70
2022-10-05T07:27:20.467Z,63.60
2022-10-05T07:30:02.373Z,63.40
2022-10-05T07:32:43.164Z,63.30
2022-10-05T07:35:34.228Z,63.20
2022-10-05T07:38:11.470Z,63.10
2022-10-05T07:40:59.399Z,63.00
2022-10-05T07:44:01.066Z,63.80
2022-10-05T07:46:42.545Z,62.80
2022-10-05T07:49:19.470Z,62.70
2022-10-05T07:51:51.251Z,63.00
2022-10-05T07:54:30.393Z,63.00
2022-10-05T07:57:25.842Z,62.90
2022-10-05T08:00:05.829Z,63.00
2022-10-05T08:02:49.069Z,63.10
2022-10-05T08:05:19.875Z,63.10
2022-10-05T08:07:52.270Z,63.00
2022-10-05T08:10:34.977Z,63.30
2022-10-05T08:13:27.246Z,63.50
2022-10-05T08:15:59.917Z,63.30
2022-10-05T08:19:00.911Z,63.40
2022-10-05T08:21:43.203Z,63.60
2022-10-05T08:24:39.647Z,63.60
2022-10-05T08:27:11.784Z,63.10
2022-10-05T08:29:56.864Z,63.50
2022-10-05T08:32:41.113Z,63.30
2022-10-05T08:35:34.768Z,63.20
2022-10-05T08:38:16.684Z,62.70
2022-10-05T08:41:21.352Z,62.70
2022-10-05T08:44:09.415Z,62.60
2022-10-05T08:46:51.332Z,62.60
2022-10-05T08:50:09.788Z,62.40
2022-10-05T08:53:08.778Z,62.30
2022-10-05T08:56:10.464Z,62.30
2022-10-05T08:58:43.227Z,62.30
2022-10-05T09:01:21.619Z,62.30
2022-10-05T09:04:14.676Z,62.40
2022-10-05T09:07:12.795Z,62.00
2022-10-05T09:10:01.978Z,62.10
2022-10-05T09:13:07.523Z,62.10
2022-10-05T09:16:16.860Z,62.00
2022-10-05T09:18:52.888Z,61.90
2022-10-05T09:21:42.355Z,61.70
2022-10-05T09:24:22.677Z,61.70
2022-10-05T09:27:17.915Z,61.30
2022-10-05T09:29:50.727Z,61.30
2022-10-05T09:32:52.025Z,61.40
2022-10-05T09:35:53.282Z,61.40
2022-10-05T09:39:00.710Z,61.30
2022-10-05T09:41:39.534Z,61.30
2022-10-05T09:44:30.705Z,61.50
2022-10-05T09:47:22.467Z,61.30
2022-10-05T09:50:28.068Z,61.20
2022-10-05T09:53:29.824Z,61.20
2022-10-05T09:56:43.823Z,61.30
2022-10-05T09:59:22.518Z,61.00
2022-10-05T10:02:15.342Z,61.40
2022-10-05T10:05:20.114Z,61.50
2022-10-05T10:08:20.228Z,61.50
2022-10-05T10:10:48.189Z,61.30
2022-10-05T10:13:55.751Z,61.50
2022-10-05T10:16:41.306Z,61.80
2022-10-05T10:19:24.977Z,61.90
2022-10-05T10:22:21.046Z,62.10
2022-10-05T10:25:25.417Z,62.00
2022-10-05T10:28:15.309Z,62.00
2022-10-05T10:31:00.046Z,62.30
2022-10-05T10:33:48.586Z,61.90
2022-10-05T10:36:42.914Z,61.90
2022-10-05T10:39:21.579Z,62.30
2022-10-05T10:42:08.014Z,62.30
2022-10-05T10:44:42.448Z,62.10
2022-10-05T10:47:33.637Z,62.20
2022-10-05T10:50:18.494Z,63.00
2022-10-05T10:52:54.398Z,62.60
2022-10-05T10:55:30.874Z,62.70
2022-10-05T10:58:16.502Z,62.30
2022-10-05T11:01:01.581Z,62.50
2022-10-05T11:04:02.271Z,62.20
2022-10-05T11:06:56.634Z,62.30
2022-10-05T11:09:44.886Z,62.70
2022-10-05T11:12:36.506Z,62.40
2022-10-05T11:15:21.354Z,62.70
2022-10-05T11:18:17.692Z,62.00
2022-10-05T11:21:02.388Z,61.80
2022-10-05T11:23:54.172Z,61.60
2022-10-05T11:26:32.533Z,61.40
2022-10-05T11:29:11.279Z,60.80
2022-10-05T11:32:22.563Z,60.80
2022-10-05T11:35:24.566Z,61.40
2022-10-05T11:38:12.924Z,61.10
2022-10-05T11:41:02.157Z,60.90
2022-10-05T11:43:47.688Z,60.80
2022-10-05T11:46:49.167Z,61.40
2022-10-05T11:49:33.717Z,62.20
2022-10-05T11:52:35.568Z,60.70
2022-10-05T11:55:20.731Z,60.60
2022-10-05T11:57:56.044Z,60.00
2022-10-05T12:00:40.614Z,59.90
2022-10-05T12:03:31.354Z,59.90
2022-10-05T12:06:15.763Z,59.80
2022-10-05T12:09:18.161Z,59.50
2022-10-05T12:12:07.978Z,59.30
2022-10-05T12:15:17.393Z,59.20
2022-10-05T12:17:53.203Z,59.50
2022-10-05T12:20:23.165Z,59.80
2022-10-05T12:22:58.909Z,59.80
2022-10-05T12:25:34.305Z,59.30
2022-10-05T12:28:09.135Z,59.50
2022-10-05T12:31:08.816Z,58.40
2022-10-05T12:34:21.197Z,58.30
2022-10-05T12:37:05.547Z,59.40
2022-10-05T12:39:56.486Z,58.90
2022-10-05T12:42:42.086Z,58.30
2022-10-05T12:45:26.410Z,58.70
2022-10-05T12:48:25.745Z,58.70
2022-10-05T12:51:09.253Z,58.80
2022-10-05T12:53:48.359Z,59.50
2022-10-05T12:56:36.897Z,58.30
2022-10-05T12:59:24.469Z,58.70
2022-10-05T13:02:20.113Z,59.00
2022-10-05T13:04:56.072Z,58.50
2022-10-05T13:07:41.798Z,58.70
2022-10-05T13:10:14.587Z,58.60
2022-10-05T13:13:12.349Z,58.30
2022-10-05T13:15:51.454Z,58.20
2022-10-05T13:18:49.788Z,58.00
2022-10-05T13:21:42.663Z,58.40
2022-10-05T13:24:31.118Z,58.60
2022-10-05T13:27:05.187Z,59.10
2022-10-05T13:29:38.677Z,59.10
2022-10-05T13:32:41.028Z,58.90
2022-10-05T13:35:22.075Z,58.40
2022-10-05T13:38:01.732Z,58.70
2022-10-05T13:40:35.900Z,58.60
2022-10-05T13:43:33.890Z,58.70
2022-10-05T13:46:17.487Z,59.10
2022-10-05T13:49:06.667Z,58.80
2022-10-05T13:51:40.911Z,58.20
2022-10-05T13:54:49.990Z,58.40
2022-10-05T13:57:45.169Z,58.10
2022-10-05T14:00:22.729Z,57.40
2022-10-05T14:02:56.651Z,56.70
2022-10-05T14:05:27.025Z,58.20
2022-10-05T14:07:53.907Z,57.60
2022-10-05T14:10:35.827Z,56.20
2022-10-05T14:13:16.438Z,56.40
2022-10-05T14:16:15.799Z,56.40
2022-10-05T14:19:05.910Z,56.00
2022-10-05T14:21:47.137Z,56.50
2022-10-05T14:24:43.739Z,56.10
2022-10-05T14:27:26.877Z,57.20
2022-10-05T14:30:01.863Z,55.80
2022-10-05T14:32:44.167Z,55.10
2022-10-05T14:35:12.850Z,55.20
2022-10-05T14:38:02.147Z,55.30
2022-10-05T14:40:36.405Z,56.10
2022-10-05T14:43:15.593Z,55.50
2022-10-05T14:46:25.006Z,55.80
2022-10-05T14:49:21.136Z,55.50
2022-10-05T14:51:49.808Z,55.70
2022-10-05T14:54:46.089Z,55.80
2022-10-05T14:57:25.328Z,55.80
2022-10-05T15:00:11.341Z,55.40
2022-10-05T15:03:04.460Z,55.70
2022-10-05T15:05:37.082Z,56.00
2022-10-05T15:08:13.214Z,55.60
2022-10-05T15:10:42.182Z,55.80
2022-10-05T15:13:25.758Z,56.20
2022-10-05T15:15:56.720Z,56.10
2022-10-05T15:18:50.000Z,56.30
2022-10-05T15:21:26.649Z,57.60
2022-10-05T15:23:57.509Z,56.50
2022-10-05T15:26:46.025Z,56.40
2022-10-05T15:29:26.073Z,56.50
2022-10-05T15:32:06.661Z,56.50
2022-10-05T15:34:52.186Z,56.80
2022-10-05T15:37:43.904Z,56.90
2022-10-05T15:40:28.598Z,57.00
2022-10-05T15:43:02.167Z,57.00
2022-10-05T15:45:39.985Z,57.30
2022-10-05T15:48:29.170Z,57.10
2022-10-05T15:51:21.292Z,57.30
2022-10-05T15:54:42.582Z,57.00
2022-10-05T15:57:27.820Z,56.80
2022-10-05T16:00:19.106Z,57.20
2022-10-05T16:03:13.207Z,56.70
2022-10-05T16:06:13.137Z,56.50
2022-10-05T16:09:05.935Z,56.20
2022-10-05T16:12:02.457Z,56.50
2022-10-05T16:15:02.098Z,56.20
2022-10-05T16:17:33.720Z,56.40
2022-10-05T16:20:20.677Z,56.50
2022-10-05T16:23:01.150Z,56.90
2022-10-05T16:25:40.640Z,56.70
2022-10-05T16:28:24.068Z,57.00
2022-10-05T16:31:19.687Z,57.10
2022-10-05T16:33:55.888Z,57.00
2022-10-05T16:36:39.661Z,57.30
2022-10-05T16:39:45.025Z,57.20
2022-10-05T16:42:24.847Z,57.40
2022-10-05T16:45:16.467Z,58.50
2022-10-05T16:47:50.285Z,57.70
2022-10-05T16:50:28.422Z,57.90
2022-10-05T16:53:12.419Z,58.00
2022-10-05T16:55:45.479Z,58.10
2022-10-05T16:58:24.264Z,58.10
2022-10-05T17:01:11.023Z,58.50
2022-10-05T17:04:00.193Z,58.30
2022-10-05T17:06:45.905Z,58.20
2022-10-05T17:09:42.818Z,58.40
2022-10-05T17:12:18.910Z,58.60
2022-10-05T17:15:12.510Z,58.40
2022-10-05T17:17:54.827Z,59.60
2022-10-05T17:21:02.562Z,58.70
2022-10-05T17:23:50.292Z,58.90
2022-10-05T17:26:23.106Z,59.00
2022-10-05T17:29:25.141Z,59.10
2022-10-05T17:32:07.284Z,59.30
2022-10-05T17:34:36.794Z,59.40
2022-10-05T17:37:42.636Z,59.30
2022-10-05T17:41:00.363Z,59.60
2022-10-05T17:43:30.670Z,59.60
2022-10-05T17:46:00.529Z,59.70
2022-10-05T17:48:48.794Z,59.70
2022-10-05T17:51:37.106Z,59.80
2022-10-05T17:54:40.793Z,59.80
2022-10-05T17:57:07.614Z,60.80
2022-10-05T17:59:37.032Z,60.00
2022-10-05T18:02:36.295Z,60.10
2022-10-05T18:05:04.455Z,60.10
2022-10-05T18:07:33.909Z,60.20
2022-10-05T18:10:09.826Z,60.20
2022-10-05T18:12:36.963Z,60.30
2022-10-05T18:15:03.786Z,60.30
2022-10-05T18:17:51.749Z,60.40
2022-10-05T18:20:26.325Z,60.50
2022-10-05T18:23:14.417Z,60.60
2022-10-05T18:26:04.681Z,60.50
2022-10-05T18:28:31.657Z,60.60
2022-10-05T18:31:17.501Z,60.60
2022-10-05T18:33:59.608Z,60.50
2022-10-05T18:37:07.336Z,60.40
2022-10-05T18:39:49.426Z,60.50
2022-10-05T18:42:37.370Z,60.40
2022-10-05T18:45:29.892Z,60.50
2022-10-05T18:48:31.130Z,60.50
2022-10-05T18:51:17.837Z,60.50
2022-10-05T18:54:18.040Z,60.50
2022-10-05T18:56:52.721Z,60.80
2022-10-05T18:59:45.125Z,61.10
2022-10-05T19:02:27.175Z,61.20
2022-10-05T19:05:46.529Z,61.10
2022-10-05T19:08:30.336Z,61.20
2022-10-05T19:11:24.265Z,61.30
2022-10-05T19:14:24.044Z,61.30
2022-10-05T19:17:28.846Z,61.40
2022-10-05T19:20:06.340Z,61.40
2022-10-05T19:22:36.009Z,61.60
2022-10-05T19:25:34.070Z,61.50
2022-10-05T19:28:10.849Z,61.50
2022-10-05T19:30:59.623Z,61.50
2022-10-05T19:33:31.468Z,61.60
2022-10-05T19:36:04.146Z,62.00
2022-10-05T19:39:01.950Z,62.30
2022-10-05T19:41:52.059Z,62.80
2022-10-05T19:44:53.142Z,63.20
2022-10-05T19:47:26.153Z,63.50
2022-10-05T19:49:54.315Z,63.80
2022-10-05T19:52:28.496Z,63.90
2022-10-05T19:55:31.577Z,63.50
2022-10-05T19:58:02.508Z,63.30
2022-10-05T20:00:31.743Z,63.40
2022-10-05T20:03:12.403Z,63.30
2022-10-05T20:05:40.123Z,63.10
2022-10-05T20:08:08.007Z,63.40
2022-10-05T20:10:35.030Z,63.30
2022-10-05T20:13:04.165Z,63.60
2022-10-05T20:15:51.966Z,63.70
2022-10-05T20:18:57.973Z,63.60
2022-10-05T20:21:43.228Z,64.00
2022-10-05T20:24:17.381Z,64.60
2022-10-05T20:27:02.024Z,64.80
2022-10-05T20:29:30.618Z,65.20
2022-10-05T20:31:57.827Z,65.30
2022-10-05T20:34:24.895Z,65.50
2022-10-05T20:36:52.385Z,65.40
2022-10-05T20:39:21.352Z,65.50
2022-10-05T20:41:51.854Z,65.50
2022-10-05T20:44:18.747Z,65.60
2022-10-05T20:46:46.631Z,65.40
2022-10-05T20:49:13.769Z,65.50
2022-10-05T20:51:40.818Z,65.30
2022-10-05T20:54:08.219Z,65.30
2022-10-05T20:56:35.403Z,65.30
2022-10-05T20:59:02.435Z,65.50
2022-10-05T21:01:31.950Z,65.50
2022-10-05T21:03:58.886Z,65.70
2022-10-05T21:06:29.927Z,65.80
2022-10-05T21:08:56.747Z,65.90
2022-10-05T21:11:23.718Z,66.00
2022-10-05T21:13:51.226Z,66.10
2022-10-05T21:16:19.714Z,66.20
2022-10-05T21:18:48.780Z,66.20
2022-10-05T21:21:17.437Z,66.50
2022-10-05T21:23:48.425Z,66.20
2022-10-05T21:26:15.554Z,65.90
2022-10-05T21:28:42.482Z,66.10
2022-10-05T21:31:09.479Z,65.90
2022-10-05T21:33:36.949Z,65.50
2022-10-05T21:36:04.034Z,65.10
2022-10-05T21:38:31.120Z,64.70
2022-10-05T21:40:58.175Z,64.90
2022-10-05T21:43:25.567Z,65.00
2022-10-05T21:45:55.249Z,64.60
2022-10-05T21:48:23.265Z,64.60
2022-10-05T21:50:50.238Z,64.50
2022-10-05T21:53:20.360Z,64.20
2022-10-05T21:55:49.801Z,64.20
2022-10-05T21:58:18.885Z,64.10
2022-10-05T22:00:45.741Z,64.20
2022-10-05T22:03:12.624Z,64.20
2022-10-05T22:05:39.540Z,64.40
2022-10-05T22:08:07.109Z,64.60
2022-10-05T22:10:34.180Z,64.90
2022-10-05T22:13:04.446Z,65.00
2022-10-05T22:15:31.811Z,65.20
2022-10-05T22:17:59.924Z,65.50
2022-10-05T22:20:27.286Z,65.70
2022-10-05T22:22:54.404Z,65.90
2022-10-05T22:25:22.149Z,65.80
2022-10-05T22:27:49.899Z,66.00
2022-10-05T22:30:17.316Z,66.10
2022-10-05T22:32:44.587Z,66.10
2022-10-05T22:35:12.027Z,66.10
2022-10-05T22:37:39.173Z,66.20
2022-10-05T22:40:07.328Z,66.10
2022-10-05T22:42:34.545Z,67.00
2022-10-05T22:45:01.485Z,66.00
2022-10-05T22:47:28.338Z,65.90
2022-10-05T22:49:55.267Z,65.70
2022-10-05T22:52:22.113Z,65.60
2022-10-05T22:54:49.063Z,66.30
2022-10-05T22:57:16.291Z,65.20
2022-10-05T22:59:43.466Z,65.10
2022-10-05T23:02:12.402Z,65.00
2022-10-05T23:04:39.487Z,65.00
2022-10-05T23:07:06.803Z,64.70
2022-10-05T23:09:33.639Z,64.50
2022-10-05T23:12:00.521Z,64.40
2022-10-05T23:14:29.291Z,64.00
2022-10-05T23:16:56.477Z,63.80
2022-10-05T23:19:23.847Z,63.90
2022-10-05T23:21:50.726Z,63.80
2022-10-05T23:24:17.589Z,63.80
2022-10-05T23:26:44.418Z,63.80
2022-10-05T23:29:11.816Z,63.70
2022-10-05T23:31:38.649Z,63.30
2022-10-05T23:34:05.455Z,63.10
2022-10-05T23:36:32.379Z,63.00
2022-10-05T23:39:00.215Z,62.80
2022-10-05T23:41:27.659Z,62.60
2022-10-05T23:43:57.481Z,62.80
2022-10-05T23:46:24.565Z,62.70
2022-10-05T23:48:53.101Z,62.60
2022-10-05T23:51:20.379Z,62.50
2022-10-05T23:53:47.343Z,62.40
2022-10-05T23:56:14.420Z,62.50
2022-10-05T23:58:41.328Z,62.40
